Airfield :
LOGIN :

Register | Disclaimer

   EN    FR    IT 

 










Legend :    VFR   Marginal VFR   IFR   Intensive IFR   Very Intensive IFR
Visi :
Ceiling :
>= 8 km
>= 3000ft
5 to 8 km
1000 to 3000 ft
1500m to 5 km
500 to 1000 ft
800 to 1500m
200 to 500 ft
< 800m
< 200 ft
Symbols :   Thunderstorms  Fog  Heavy snow  Heavy precipitations  Wind > 20 kt
SIGMETs :     Misc.  Thunderstorms  Icing  Turbulence  Mountain Waves  Volcanic Ashes







- Airport Elevation : 274 ft
- IATA code : PUY


LDPL - Pula

CURRENT METAR :
  • 301200Z 10010KT 070V140 9999 FEW050 22/05 Q1025 BECMG 27008KT

EXPIRED METARs :
  • 301130Z 09011KT 070V140 CAVOK 22/05 Q1025 BECMG 27008KT
  • 301100Z 11010KT 080V140 CAVOK 22/05 Q1026 BECMG 27008KT
  • 301030Z 11011KT CAVOK 21/05 Q1026 BECMG 27008KT
  • 301000Z 10012KT 070V120 CAVOK 21/05 Q1026 NOSIG
  • 300930Z 07013KT CAVOK 21/05 Q1026 NOSIG

TAF TAF LDPL
Valid from the 30 at 12:00 until the 31 at 12:00 UTC


301125Z 3012/3112 09008KT CAVOK TX23/3013Z TN11/3104Z
BECMG 3012/3014 27008KT
BECMG 3016/3018 VRB02KT
No reported NOTAMs for that airfield.



MET'MAP, your aeronautical weather chart ! - Copyright ORBIFLY December 2007 - Disclaimer

ORBIFLY MET'MAP TEAM :

Programming & Development : Alexandra Zaïnal
Concept & Development : Baudouin d'Aumeries
Co-Development & Prog : Marc-Olivier Méhu
Technical & hardware support : Manuel Goepfert

Contact : metmap@orbifly.com




SOURCES & CREDITS :

   NOAA